Time;durP1;ratioP1;P1;durP2;ratioP2;P2;SDS_P1;SDS_P2;PMS_P1;PMS_P2;Temp;Humidity;BMP_temperature;BMP_pressure;BME280_temperature;BME280_humidity;BME280_pressure;Samples;Min_cycle;Max_cycle;Signal;HPM_P1;HPM_P2
2024/03/19 00:00:14;;;;;;;0.20;0.20;;;;;;;11.86;44.91;100962.03;4935954;29;20083;-86
2024/03/19 00:02:40;;;;;;;0.20;0.20;;;;;;;11.78;44.49;100941.63;4918936;29;20032;-87
2024/03/19 00:05:06;;;;;;;0.20;0.20;;;;;;;11.83;44.67;100956.16;4934815;29;20031;-86
2024/03/19 00:07:32;;;;;;;0.20;0.20;;;;;;;11.80;44.25;100957.16;4935760;29;20505;-86
2024/03/19 00:09:57;;;;;;;0.20;0.20;;;;;;;11.77;44.89;100958.09;4919075;29;20035;-86
2024/03/19 00:12:24;;;;;;;0.20;0.20;;;;;;;11.70;44.33;100946.34;4918866;29;20091;-86
2024/03/19 00:14:50;;;;;;;0.20;0.20;;;;;;;11.65;45.56;100956.09;4918979;29;20034;-86
2024/03/19 00:17:16;;;;;;;0.20;0.20;;;;;;;11.63;44.67;100949.31;4918576;29;20541;-86
2024/03/19 00:19:42;;;;;;;0.20;0.20;;;;;;;11.60;45.12;100946.84;4918717;29;20031;-86
2024/03/19 00:22:08;;;;;;;0.20;0.20;;;;;;;11.52;44.94;100947.25;4950960;29;20398;-86
2024/03/19 00:24:34;;;;;;;0.20;0.20;;;;;;;11.52;44.30;100939.47;4917772;29;20028;-87
2024/03/19 00:27:00;;;;;;;0.20;0.20;;;;;;;11.39;44.45;100922.81;4935262;29;20063;-86
2024/03/19 00:29:26;;;;;;;0.20;0.20;;;;;;;11.59;44.73;100942.59;4934423;29;20118;-86
2024/03/19 00:31:52;;;;;;;0.10;0.10;;;;;;;11.48;44.73;100937.91;4918392;29;20110;-86
2024/03/19 00:34:17;;;;;;;0.20;0.20;;;;;;;11.54;44.78;100949.75;4935316;29;20125;-86
2024/03/19 00:36:43;;;;;;;0.20;0.20;;;;;;;11.54;44.50;100948.00;4902498;29;20119;-86
2024/03/19 00:39:12;;;;;;;0.20;0.20;;;;;;;11.51;44.37;100945.56;4918318;29;20474;-86
2024/03/19 00:41:38;;;;;;;0.20;0.20;;;;;;;11.53;44.22;100942.91;4918652;29;20090;-86
2024/03/19 00:44:04;;;;;;;0.20;0.20;;;;;;;11.43;44.38;100932.97;4918365;29;20027;-86
2024/03/19 00:46:34;;;;;;;0.20;0.20;;;;;;;11.52;44.95;100947.25;4902350;29;20063;-86
2024/03/19 00:49:01;;;;;;;0.20;0.20;;;;;;;11.61;45.14;100946.81;4918406;29;20480;-87
2024/03/19 00:51:27;;;;;;;0.20;0.20;;;;;;;11.58;45.35;100946.09;4918519;29;20086;-86
2024/03/19 00:53:52;;;;;;;0.20;0.20;;;;;;;11.55;45.07;100939.31;4950236;29;20028;-86
2024/03/19 00:56:18;;;;;;;0.20;0.20;;;;;;;11.64;44.97;100949.22;4902130;29;20078;-87
2024/03/19 00:58:43;;;;;;;0.20;0.20;;;;;;;11.55;44.76;100941.06;4918420;29;20067;-86
2024/03/19 01:01:10;;;;;;;0.20;0.20;;;;;;;11.42;45.65;100912.31;4934660;29;20059;-86
2024/03/19 01:03:35;;;;;;;0.20;0.20;;;;;;;11.60;46.40;100934.75;4949698;29;20063;-86
2024/03/19 01:06:01;;;;;;;0.20;0.20;;;;;;;11.40;45.33;100924.47;4901990;29;20179;-86
2024/03/19 01:08:27;;;;;;;0.20;0.20;;;;;;;11.41;45.21;100928.78;4917713;29;20054;-86
2024/03/19 01:10:53;;;;;;;0.20;0.20;;;;;;;11.49;45.43;100937.00;4918262;29;20036;-87
2024/03/19 01:13:18;;;;;;;0.20;0.20;;;;;;;11.51;43.19;100944.72;4917946;29;20032;-85
2024/03/19 01:15:44;;;;;;;0.20;0.20;;;;;;;11.34;42.97;100912.69;4933004;29;20034;-87
2024/03/19 01:18:09;;;;;;;0.20;0.20;;;;;;;11.36;42.70;100935.91;4933584;29;20115;-86
2024/03/19 01:20:35;;;;;;;0.20;0.20;;;;;;;11.33;43.40;100939.50;4917468;29;20024;-86
2024/03/19 01:23:00;;;;;;;0.20;0.20;;;;;;;11.18;43.62;100933.25;4917353;29;20111;-85
2024/03/19 01:25:26;;;;;;;0.20;0.20;;;;;;;11.30;42.58;100941.38;4901788;29;20507;-86
2024/03/19 01:27:53;;;;;;;0.20;0.20;;;;;;;11.19;42.65;100944.47;4933152;29;20098;-86
2024/03/19 01:30:19;;;;;;;0.20;0.20;;;;;;;11.28;42.54;100951.81;4917642;29;20111;-86
2024/03/19 01:32:45;;;;;;;0.20;0.20;;;;;;;11.32;42.09;100942.16;4933341;29;20028;-86
2024/03/19 01:35:10;;;;;;;0.20;0.20;;;;;;;11.27;42.28;100942.34;4934046;29;20039;-86
2024/03/19 01:37:36;;;;;;;0.20;0.20;;;;;;;11.18;42.97;100929.84;4917758;29;20032;-86
2024/03/19 01:40:03;;;;;;;0.20;0.20;;;;;;;11.28;42.05;100945.78;4933210;29;20032;-86
2024/03/19 01:42:28;;;;;;;0.20;0.20;;;;;;;11.34;42.24;100948.09;4917282;29;20491;-86
2024/03/19 01:45:12;;;;;;;0.20;0.20;;;;;;;11.25;41.82;100953.72;4916543;29;20107;-86
2024/03/19 01:47:38;;;;;;;0.20;0.20;;;;;;;11.26;42.41;100947.63;4902357;29;20035;-86
2024/03/19 01:50:05;;;;;;;0.20;0.20;;;;;;;11.26;43.08;100952.78;4932714;29;20055;-86
2024/03/19 01:52:33;;;;;;;0.20;0.20;;;;;;;11.13;41.67;100949.94;4932978;29;20031;-85
2024/03/19 01:54:58;;;;;;;0.20;0.20;;;;;;;11.09;42.15;100938.88;4932533;29;20091;-86
2024/03/19 01:57:24;;;;;;;0.20;0.20;;;;;;;10.98;42.46;100928.16;4932892;29;20027;-86
2024/03/19 01:59:52;;;;;;;0.20;0.20;;;;;;;11.10;41.71;100948.31;4932230;29;20047;-86
2024/03/19 02:02:46;;;;;;;0.20;0.20;;;;;;;11.16;41.82;100952.38;4932773;29;20032;-86
2024/03/19 02:05:12;;;;;;;0.20;0.20;;;;;;;11.13;41.52;100944.75;4927845;29;20050;-86
2024/03/19 02:07:38;;;;;;;0.20;0.20;;;;;;;11.12;42.39;100943.94;4901166;29;20414;-87
2024/03/19 02:10:04;;;;;;;0.20;0.20;;;;;;;11.14;41.95;100936.91;4933576;29;20596;-86
2024/03/19 02:12:29;;;;;;;0.20;0.20;;;;;;;11.23;42.07;100952.94;4916676;29;20034;-86
2024/03/19 02:14:55;;;;;;;0.20;0.20;;;;;;;11.22;42.76;100949.53;4932515;29;20036;-86
2024/03/19 02:17:21;;;;;;;0.20;0.20;;;;;;;11.18;42.05;100953.97;4916826;29;20529;-86
2024/03/19 02:19:47;;;;;;;0.20;0.20;;;;;;;11.17;41.70;100957.47;4917122;29;20028;-86
2024/03/19 02:22:13;;;;;;;0.20;0.20;;;;;;;11.07;40.73;100948.47;4916880;29;20153;-86
2024/03/19 02:24:40;;;;;;;0.20;0.20;;;;;;;11.01;40.48;100955.66;4916511;29;20039;-86
2024/03/19 02:27:05;;;;;;;0.20;0.20;;;;;;;11.06;41.66;100958.91;4916375;29;20036;-86
2024/03/19 02:29:32;;;;;;;0.20;0.20;;;;;;;11.15;40.60;100974.84;4916443;29;20587;-85
2024/03/19 02:31:58;;;;;;;0.20;0.20;;;;;;;11.11;41.44;100975.91;4901003;29;20428;-86
2024/03/19 02:34:23;;;;;;;0.20;0.20;;;;;;;11.05;41.92;100965.81;4916360;29;20034;-86
2024/03/19 02:36:49;;;;;;;0.20;0.20;;;;;;;11.04;41.60;100961.56;4932351;29;20503;-86
2024/03/19 02:39:14;;;;;;;0.20;0.20;;;;;;;11.04;41.97;100961.56;4900666;29;20122;-86
2024/03/19 02:41:40;;;;;;;0.20;0.20;;;;;;;10.94;41.10;100949.09;4915870;29;20062;-86
2024/03/19 02:44:06;;;;;;;0.20;0.20;;;;;;;11.07;41.37;100971.75;4948079;29;20039;-86
2024/03/19 02:46:31;;;;;;;0.20;0.20;;;;;;;11.04;41.62;100958.13;4919254;29;20493;-86
2024/03/19 02:48:58;;;;;;;0.20;0.20;;;;;;;11.03;41.44;100953.88;4922553;29;20103;-86
2024/03/19 02:51:23;;;;;;;0.20;0.20;;;;;;;11.12;40.72;100969.81;4922764;29;20514;-86
2024/03/19 02:53:49;;;;;;;0.20;0.20;;;;;;;11.08;41.08;100972.59;4922496;29;20028;-86
2024/03/19 02:56:15;;;;;;;0.20;0.20;;;;;;;11.13;41.24;100968.06;4938233;29;20095;-86
2024/03/19 02:58:41;;;;;;;0.20;0.20;;;;;;;11.14;41.32;100982.69;4938507;29;20510;-86
2024/03/19 03:01:07;;;;;;;0.20;0.20;;;;;;;11.18;41.14;100985.06;4922550;29;20119;-86
2024/03/19 03:03:33;;;;;;;0.20;0.20;;;;;;;11.06;41.07;100959.72;4922656;29;20031;-86
2024/03/19 03:05:59;;;;;;;0.20;0.20;;;;;;;11.20;40.82;100988.41;4922711;29;20171;-86
2024/03/19 03:08:24;;;;;;;0.20;0.20;;;;;;;11.27;41.94;100988.13;4938347;29;20119;-86
2024/03/19 03:10:50;;;;;;;0.20;0.20;;;;;;;11.04;41.66;100966.72;4922230;29;20070;-87
2024/03/19 03:13:15;;;;;;;0.20;0.20;;;;;;;11.15;41.71;100982.63;4938431;29;20038;-86
2024/03/19 03:15:41;;;;;;;0.20;0.20;;;;;;;11.19;41.41;100978.97;4922485;29;20059;-86
2024/03/19 03:18:06;;;;;;;0.20;0.20;;;;;;;11.14;42.04;100973.16;4938666;29;20588;-85
2024/03/19 03:20:32;;;;;;;0.20;0.20;;;;;;;11.18;42.01;100974.69;4938099;29;20035;-86
2024/03/19 03:22:57;;;;;;;0.20;0.20;;;;;;;11.15;42.36;100964.50;4938239;29;20114;-86
2024/03/19 03:25:23;;;;;;;0.20;0.20;;;;;;;11.23;42.00;100981.44;4906263;29;20124;-86
2024/03/19 03:27:50;;;;;;;0.20;0.20;;;;;;;11.19;41.59;100981.56;4937998;29;20110;-86
2024/03/19 03:30:16;;;;;;;0.20;0.20;;;;;;;11.09;42.69;100980.28;4922912;29;20032;-86
2024/03/19 03:32:42;;;;;;;0.20;0.20;;;;;;;11.17;42.83;100985.97;4939734;29;20036;-86
2024/03/19 03:35:08;;;;;;;0.20;0.20;;;;;;;11.05;41.95;100978.75;4906569;29;20509;-85
2024/03/19 03:37:34;;;;;;;0.20;0.20;;;;;;;11.13;41.95;100986.19;4922465;29;20118;-86
2024/03/19 03:40:00;;;;;;;0.20;0.20;;;;;;;11.10;41.15;100981.13;4921765;29;20108;-86
2024/03/19 03:42:25;;;;;;;0.20;0.20;;;;;;;11.11;41.51;100975.91;4906517;29;20036;-86
2024/03/19 03:44:51;;;;;;;0.20;0.20;;;;;;;11.02;41.82;100981.50;4937684;29;20027;-86
2024/03/19 03:47:17;;;;;;;0.20;0.20;;;;;;;11.01;42.22;100987.59;4922198;29;20126;-85
2024/03/19 03:49:43;;;;;;;0.20;0.20;;;;;;;11.03;42.11;100984.94;4922024;29;20438;-86
2024/03/19 03:52:08;;;;;;;0.20;0.20;;;;;;;10.97;42.28;100986.03;4922286;29;20028;-86
2024/03/19 03:54:34;;;;;;;0.20;0.20;;;;;;;10.94;42.20;100985.34;4922197;29;20031;-85
2024/03/19 03:57:00;;;;;;;0.20;0.20;;;;;;;10.89;43.58;100975.19;4937354;29;20032;-85
2024/03/19 03:59:27;;;;;;;0.20;0.20;;;;;;;10.85;44.64;100981.41;4902407;29;20478;-83
2024/03/19 04:01:52;;;;;;;0.20;0.20;;;;;;;11.02;41.29;100993.59;4903440;29;20052;-84
2024/03/19 04:04:18;;;;;;;0.20;0.20;;;;;;;10.94;41.10;100993.94;4936000;29;20063;-84
2024/03/19 04:06:43;;;;;;;0.20;0.20;;;;;;;10.94;40.90;100993.09;4934843;29;20446;-84
2024/03/19 04:09:10;;;;;;;0.20;0.20;;;;;;;10.96;41.02;100989.53;4918898;29;20044;-84
2024/03/19 04:11:35;;;;;;;0.20;0.20;;;;;;;11.01;40.36;100997.94;4940700;29;20030;-85
2024/03/19 04:14:01;;;;;;;0.20;0.20;;;;;;;10.91;41.43;100994.06;4969478;28;20054;-85
2024/03/19 04:16:26;;;;;;;0.20;0.20;;;;;;;10.90;41.07;100993.22;4969354;28;20038;-85
2024/03/19 04:18:52;;;;;;;0.20;0.20;;;;;;;10.88;40.80;100996.78;4954451;28;20059;-86
2024/03/19 04:21:17;;;;;;;0.20;0.20;;;;;;;10.77;40.70;100999.84;4953305;29;20493;-85
2024/03/19 04:23:43;;;;;;;0.20;0.20;;;;;;;10.70;39.98;100998.44;4952759;29;20107;-85
2024/03/19 04:26:08;;;;;;;0.20;0.20;;;;;;;10.58;39.76;101001.56;4969435;28;20133;-85
2024/03/19 04:28:34;;;;;;;0.20;0.20;;;;;;;10.54;41.14;101006.03;4954074;28;20102;-85
2024/03/19 04:30:59;;;;;;;0.20;0.20;;;;;;;10.65;40.22;101009.91;4937212;29;20071;-85
2024/03/19 04:33:25;;;;;;;0.20;0.20;;;;;;;10.65;39.90;101000.41;4969257;28;20039;-85
2024/03/19 04:35:51;;;;;;;0.20;0.20;;;;;;;10.60;39.76;100995.41;4954093;28;20086;-88
2024/03/19 04:38:17;;;;;;;0.20;0.20;;;;;;;10.50;39.96;101001.88;4937109;29;20604;-86
2024/03/19 04:40:42;;;;;;;0.20;0.20;;;;;;;10.45;39.62;100993.50;4953023;29;20482;-86
2024/03/19 04:43:08;;;;;;;0.20;0.20;;;;;;;10.57;40.34;101002.47;4969148;28;20114;-86
2024/03/19 04:45:35;;;;;;;0.20;0.20;;;;;;;10.52;40.73;100989.75;4937338;29;20037;-87
2024/03/19 04:48:00;;;;;;;0.20;0.20;;;;;;;10.67;40.28;101018.44;4954363;28;20027;-86
2024/03/19 04:50:26;;;;;;;0.20;0.20;;;;;;;10.74;39.59;101014.69;4936949;29;20472;-87
2024/03/19 04:52:51;;;;;;;0.20;0.20;;;;;;;10.75;39.86;101016.38;4952151;29;20038;-87
2024/03/19 04:55:17;;;;;;;0.20;0.20;;;;;;;10.73;39.38;101024.19;4952797;29;20042;-84
2024/03/19 04:57:42;;;;;;;0.20;0.20;;;;;;;10.74;39.70;101030.22;4953376;29;20049;-93
2024/03/19 05:00:11;;;;;;;0.20;0.20;;;;;;;10.70;39.80;101034.66;4925872;29;20485;-89
2024/03/19 05:02:37;;;;;;;0.20;0.20;;;;;;;10.65;39.60;101030.59;4918214;29;20410;-90
2024/03/19 05:05:02;;;;;;;0.20;0.20;;;;;;;10.59;40.03;101029.09;4949644;29;20167;-85
2024/03/19 05:07:28;;;;;;;0.20;0.20;;;;;;;10.68;40.51;101056.34;4917474;29;20081;-92
2024/03/19 05:09:55;;;;;;;0.20;0.20;;;;;;;10.57;39.45;101044.69;4933324;29;20031;-88
2024/03/19 05:12:21;;;;;;;0.20;0.20;;;;;;;10.48;40.07;101054.59;4933862;29;20138;-87
2024/03/19 05:14:46;;;;;;;0.20;0.20;;;;;;;10.25;40.33;101048.63;4933447;29;20031;-89
2024/03/19 05:17:13;;;;;;;0.20;0.20;;;;;;;10.32;40.75;101055.25;4933276;29;20039;-89
2024/03/19 05:19:38;;;;;;;0.20;0.20;;;;;;;10.34;41.20;101062.94;4933580;29;20069;-86
2024/03/19 05:22:04;;;;;;;0.20;0.20;;;;;;;10.45;39.87;101068.50;4932815;29;20175;-85
2024/03/19 05:24:30;;;;;;;0.20;0.20;;;;;;;10.46;39.79;101059.84;4927998;29;20095;-85
2024/03/19 05:26:56;;;;;;;0.20;0.20;;;;;;;10.44;39.71;101068.56;4934302;29;20027;-84
2024/03/19 05:29:22;;;;;;;0.20;0.20;;;;;;;10.35;39.68;101049.09;4948541;29;20410;-82
2024/03/19 05:31:48;;;;;;;0.20;0.20;;;;;;;10.51;39.36;101065.63;4948768;29;20031;-84
2024/03/19 05:34:13;;;;;;;0.20;0.20;;;;;;;10.53;39.36;101071.63;4938169;29;20038;-94
2024/03/19 05:36:39;;;;;;;0.20;0.20;;;;;;;10.67;39.47;101077.94;4980308;23;20141;-88
2024/03/19 05:39:09;;;;;;;0.20;0.20;;;;;;;10.63;40.74;101072.91;4972583;28;20034;-86
2024/03/19 05:41:37;;;;;;;0.20;0.20;;;;;;;10.71;40.23;101082.06;4968615;28;20027;-94
2024/03/19 05:44:03;;;;;;;0.20;0.20;;;;;;;10.70;40.09;101075.22;4961004;28;20031;-89
2024/03/19 05:46:29;;;;;;;0.20;0.20;;;;;;;10.70;39.17;101076.06;4953058;28;20082;-87
2024/03/19 05:48:54;;;;;;;0.20;0.20;;;;;;;10.80;39.55;101082.53;4958175;28;20034;-87
2024/03/19 05:51:20;;;;;;;0.20;0.20;;;;;;;10.62;38.44;101073.81;4941797;28;20039;-87
2024/03/19 05:53:46;;;;;;;0.20;0.20;;;;;;;10.79;37.85;101101.56;4954484;28;20031;-89
2024/03/19 05:56:12;;;;;;;0.20;0.20;;;;;;;10.80;38.67;101092.88;4971431;28;20074;-86
2024/03/19 05:58:37;;;;;;;0.20;0.20;;;;;;;10.79;39.33;101095.53;4951567;28;20019;-95
2024/03/19 06:01:03;;;;;;;0.20;0.20;;;;;;;10.67;38.96;101088.31;4970255;28;20094;-91
2024/03/19 06:03:32;;;;;;;0.20;0.20;;;;;;;10.79;37.49;101098.13;4969750;28;20031;-86
2024/03/19 06:06:02;;;;;;;0.20;0.20;;;;;;;10.87;37.45;101096.91;4970703;28;20027;-93
2024/03/19 06:08:27;;;;;;;0.20;0.20;;;;;;;10.90;37.47;101098.50;4957787;28;20085;-88
2024/03/19 06:10:57;;;;;;;0.25;0.25;;;;;;;10.95;36.79;101098.34;4975196;28;20038;-93
2024/03/19 06:13:23;;;;;;;0.20;0.20;;;;;;;10.98;36.19;101096.44;4965918;28;20037;-95
2024/03/19 06:15:49;;;;;;;0.20;0.20;;;;;;;11.00;35.97;101097.22;4958220;28;20095;-92
2024/03/19 06:18:15;;;;;;;0.20;0.20;;;;;;;11.01;36.00;101104.09;4957332;28;20121;-92
2024/03/19 06:20:41;;;;;;;0.20;0.20;;;;;;;11.04;35.65;101101.38;4974791;28;20057;-88
2024/03/19 06:23:07;;;;;;;0.20;0.20;;;;;;;10.99;34.89;101095.53;4972114;28;20048;-92
2024/03/19 06:25:35;;;;;;;0.20;0.20;;;;;;;11.02;35.05;101110.13;4938006;28;20428;-90
2024/03/19 06:28:01;;;;;;;0.30;0.30;;;;;;;11.13;37.15;101111.31;4985680;28;20437;-94
2024/03/19 06:30:30;;;;;;;0.20;0.20;;;;;;;11.15;35.66;101099.16;4954433;28;20026;-88
2024/03/19 06:32:56;;;;;;;0.20;0.20;;;;;;;11.27;35.16;101115.06;4971265;28;20039;-86
2024/03/19 06:35:21;;;;;;;0.20;0.20;;;;;;;11.27;35.90;101108.13;4987064;28;20089;-88
2024/03/19 06:37:47;;;;;;;0.20;0.20;;;;;;;11.44;35.46;101120.34;4955827;28;20035;-90
2024/03/19 06:40:13;;;;;;;0.20;0.20;;;;;;;11.41;34.38;101121.31;4972377;28;20023;-90
2024/03/19 06:42:39;;;;;;;0.30;0.30;;;;;;;11.38;34.72;101126.63;4954409;28;20034;-87
2024/03/19 06:45:08;;;;;;;0.20;0.20;;;;;;;11.34;34.83;101130.25;4976319;28;20041;-84
2024/03/19 06:47:34;;;;;;;0.20;0.20;;;;;;;11.38;35.78;101125.78;4986564;28;20026;-93
2024/03/19 06:50:00;;;;;;;0.20;0.20;;;;;;;11.37;35.19;101129.28;4954415;28;20031;-88
2024/03/19 06:52:25;;;;;;;0.20;0.20;;;;;;;11.39;35.30;101132.63;4952907;28;20070;-89
2024/03/19 06:54:52;;;;;;;0.20;0.20;;;;;;;11.51;35.08;101134.72;4973108;28;20027;-91
2024/03/19 06:57:18;;;;;;;0.20;0.20;;;;;;;11.63;35.44;101134.16;4977842;28;20141;-89
2024/03/19 06:59:44;;;;;;;0.20;0.20;;;;;;;11.71;35.18;101119.09;4973151;28;20045;-92
2024/03/19 07:02:13;;;;;;;0.20;0.20;;;;;;;11.76;34.95;101137.00;4954386;28;20031;-87
2024/03/19 07:04:40;;;;;;;0.20;0.20;;;;;;;11.69;34.13;101120.88;4985078;28;20035;-88
2024/03/19 07:07:05;;;;;;;0.20;0.20;;;;;;;11.86;34.69;101134.88;4954757;28;20089;-90
2024/03/19 07:09:31;;;;;;;0.30;0.30;;;;;;;11.88;34.03;101133.88;4954448;28;20042;-88
2024/03/19 07:11:58;;;;;;;0.20;0.20;;;;;;;11.85;34.13;101140.97;4973834;28;20031;-89
2024/03/19 07:14:24;;;;;;;0.20;0.20;;;;;;;11.80;33.14;101141.19;4972501;28;20030;-87
2024/03/19 07:16:50;;;;;;;0.20;0.20;;;;;;;11.67;32.82;101117.53;4956902;23;20059;-88
2024/03/19 07:19:16;;;;;;;0.20;0.20;;;;;;;11.75;33.51;101136.19;4932324;29;20149;-88
2024/03/19 07:21:42;;;;;;;0.20;0.20;;;;;;;11.95;33.25;101161.22;4931902;29;20077;-90
2024/03/19 07:24:07;;;;;;;0.20;0.20;;;;;;;11.79;33.40;101139.47;4947655;29;20035;-82
2024/03/19 07:26:33;;;;;;;0.28;0.28;;;;;;;11.95;31.85;101140.47;4931489;29;20061;-85
2024/03/19 07:28:58;;;;;;;0.25;0.25;;;;;;;12.00;32.72;101145.47;4933056;29;20043;-91
2024/03/19 07:31:25;;;;;;;0.20;0.20;;;;;;;12.06;31.59;101160.72;4932962;29;20087;-90
2024/03/19 07:33:50;;;;;;;0.20;0.20;;;;;;;12.09;32.42;101149.34;4930391;29;20123;-91
2024/03/19 07:36:16;;;;;;;0.20;0.20;;;;;;;12.18;32.13;101157.53;4935742;29;20083;-92
2024/03/19 07:38:42;;;;;;;0.20;0.20;;;;;;;12.14;31.98;101162.97;4932784;29;20675;-93
2024/03/19 07:41:08;;;;;;;0.20;0.20;;;;;;;12.05;32.33;101144.31;4919405;29;20067;-87
2024/03/19 07:43:34;;;;;;;0.20;0.20;;;;;;;12.29;31.90;101170.88;4934591;29;20067;-87
2024/03/19 07:46:00;;;;;;;0.20;0.20;;;;;;;12.34;32.05;101161.09;4935109;29;20074;-86
2024/03/19 07:48:25;;;;;;;0.20;0.20;;;;;;;12.43;32.75;101159.81;4904023;29;20038;-88
2024/03/19 07:50:51;;;;;;;0.30;0.30;;;;;;;12.44;31.38;101179.66;4934411;29;20036;-91
2024/03/19 07:53:17;;;;;;;0.28;0.28;;;;;;;12.35;32.00;101162.78;4934556;29;20036;-90
2024/03/19 07:55:45;;;;;;;0.20;0.20;;;;;;;12.60;32.37;101174.59;4919616;29;20032;-92
2024/03/19 07:58:11;;;;;;;0.20;0.20;;;;;;;12.66;32.43;101166.50;4935342;29;20110;-91
2024/03/19 08:00:37;;;;;;;0.20;0.20;;;;;;;12.67;31.79;101164.72;4951118;29;20088;-85
2024/03/19 08:03:04;;;;;;;0.20;0.20;;;;;;;12.85;31.88;101172.47;4950393;29;20032;-90
2024/03/19 08:05:29;;;;;;;0.20;0.20;;;;;;;12.69;31.01;101181.94;4935022;29;20043;-88
2024/03/19 08:07:56;;;;;;;0.20;0.20;;;;;;;12.95;31.85;101187.59;4948325;28;20435;-88
2024/03/19 08:10:22;;;;;;;0.20;0.20;;;;;;;12.91;31.37;101182.56;4920092;29;20036;-90
2024/03/19 08:12:47;;;;;;;0.20;0.20;;;;;;;12.94;31.50;101191.94;4934129;29;20040;-90
2024/03/19 08:15:13;;;;;;;0.20;0.20;;;;;;;12.83;31.32;101184.69;4914370;29;20040;-87
2024/03/19 08:17:39;;;;;;;0.30;0.30;;;;;;;12.85;29.59;101193.22;4934660;29;20100;-94
2024/03/19 08:20:12;;;;;;;0.30;0.30;;;;;;;12.68;30.43;101166.41;4935093;29;20466;-87
2024/03/19 08:22:41;;;;;;;0.25;0.25;;;;;;;12.70;30.05;101185.38;4935704;29;20146;-94
2024/03/19 08:25:09;;;;;;;0.30;0.30;;;;;;;12.96;30.70;101178.88;4939320;29;20030;-94
2024/03/19 08:27:36;;;;;;;0.20;0.20;;;;;;;13.01;31.61;101180.34;4936175;29;20517;-88
2024/03/19 08:30:03;;;;;;;0.20;0.20;;;;;;;13.06;31.31;101183.53;4935677;29;20020;-89
2024/03/19 08:32:29;;;;;;;0.20;0.20;;;;;;;13.23;31.16;101184.47;4935814;29;20482;-91
2024/03/19 08:34:55;;;;;;;0.20;0.20;;;;;;;13.41;29.59;101186.97;4943127;29;20023;-91
2024/03/19 08:37:21;;;;;;;0.20;0.20;;;;;;;13.45;30.13;101185.88;4939348;29;20058;-86
2024/03/19 08:39:46;;;;;;;0.20;0.20;;;;;;;13.57;30.38;101196.56;4942685;29;20063;-90
2024/03/19 08:42:12;;;;;;;0.20;0.20;;;;;;;13.37;28.88;101177.66;4936941;28;20082;-93
2024/03/19 08:44:37;;;;;;;0.20;0.20;;;;;;;13.61;30.04;101185.94;4934420;29;20047;-91
2024/03/19 08:47:05;;;;;;;0.25;0.25;;;;;;;13.64;30.32;101190.97;4902164;29;20514;-92
2024/03/19 08:49:31;;;;;;;0.20;0.20;;;;;;;13.66;29.45;101172.66;4919192;29;20561;-87
2024/03/19 08:51:57;;;;;;;0.22;0.22;;;;;;;13.73;29.96;101179.22;4918732;29;20024;-83
2024/03/19 08:54:23;;;;;;;0.25;0.25;;;;;;;13.86;30.00;101188.03;4937383;28;20056;-93
2024/03/19 08:56:49;;;;;;;0.20;0.20;;;;;;;13.82;29.82;101176.16;4935861;29;20027;-90
2024/03/19 08:59:14;;;;;;;0.20;0.20;;;;;;;14.00;31.08;101182.97;4933875;29;20058;-85
2024/03/19 09:01:40;;;;;;;0.20;0.20;;;;;;;13.90;29.24;101181.78;4942349;29;20123;-85
2024/03/19 09:04:06;;;;;;;0.20;0.20;;;;;;;13.79;30.16;101189.31;4941453;29;20474;-87
2024/03/19 09:06:32;;;;;;;0.20;0.20;;;;;;;13.78;29.74;101187.66;4933409;29;20035;-89
2024/03/19 09:08:58;;;;;;;0.20;0.20;;;;;;;13.79;29.02;101178.91;4919583;29;20434;-94
2024/03/19 09:11:23;;;;;;;0.20;0.20;;;;;;;13.90;31.05;101186.16;4918760;29;20027;-92
2024/03/19 09:13:49;;;;;;;0.20;0.20;;;;;;;13.88;28.75;101183.63;4934890;29;21029;-89
2024/03/19 09:16:15;;;;;;;0.20;0.20;;;;;;;14.11;29.06;101194.53;4932855;29;20093;-92
2024/03/19 09:18:42;;;;;;;0.20;0.20;;;;;;;14.06;29.89;101195.66;4917722;29;20482;-92
2024/03/19 09:21:10;;;;;;;0.20;0.20;;;;;;;14.13;29.44;101187.50;4948793;29;20118;-88
2024/03/19 09:23:39;;;;;;;0.20;0.20;;;;;;;14.29;29.03;101175.31;4931601;29;20040;-94
2024/03/19 09:26:05;;;;;;;0.20;0.20;;;;;;;14.18;28.91;101188.09;4918586;29;20035;-91
2024/03/19 09:28:32;;;;;;;0.20;0.20;;;;;;;14.39;30.13;101186.06;4902255;29;20525;-93
2024/03/19 09:30:59;;;;;;;0.20;0.20;;;;;;;14.56;29.06;101186.81;4903225;29;20094;-89
2024/03/19 09:33:24;;;;;;;0.20;0.20;;;;;;;14.60;28.48;101183.09;4918076;29;20033;-92
2024/03/19 09:35:51;;;;;;;0.20;0.20;;;;;;;14.66;29.08;101168.91;4917776;29;20061;-94
2024/03/19 09:38:18;;;;;;;0.20;0.20;;;;;;;14.59;29.15;101167.59;4922049;29;20413;-91
2024/03/19 09:40:58;;;;;;;0.20;0.20;;;;;;;14.66;28.80;101176.72;4916653;29;20466;-88
2024/03/19 09:43:25;;;;;;;0.20;0.20;;;;;;;14.80;30.24;101165.50;4903516;29;20064;-94
2024/03/19 09:45:51;;;;;;;0.20;0.20;;;;;;;14.82;28.93;101174.06;4916127;29;20035;-94
2024/03/19 09:48:18;;;;;;;0.20;0.20;;;;;;;14.80;28.68;101178.53;4907149;29;20055;-90
2024/03/19 09:50:43;;;;;;;0.20;0.20;;;;;;;14.42;27.42;101184.13;4932024;29;20111;-88
2024/03/19 09:53:17;;;;;;;0.20;0.20;;;;;;;14.56;28.21;101173.81;4931842;29;20171;-88
2024/03/19 09:55:43;;;;;;;0.20;0.20;;;;;;;14.59;28.59;101144.16;4938955;29;20059;-83
2024/03/19 09:58:09;;;;;;;0.20;0.20;;;;;;;14.80;28.80;101181.97;4931419;29;20031;-86
2024/03/19 10:00:34;;;;;;;0.20;0.20;;;;;;;14.61;28.17;101182.19;4915101;29;20062;-85
2024/03/19 10:03:00;;;;;;;0.20;0.20;;;;;;;14.53;28.07;101183.53;4916000;29;20031;-91
2024/03/19 10:05:26;;;;;;;0.20;0.20;;;;;;;14.54;28.80;101175.63;4930790;29;20184;-90
2024/03/19 10:07:53;;;;;;;0.20;0.20;;;;;;;14.42;27.36;101186.72;4915241;29;20042;-87
2024/03/19 10:10:18;;;;;;;0.20;0.20;;;;;;;14.27;27.95;101167.59;4947163;29;20028;-85
2024/03/19 10:12:44;;;;;;;0.20;0.20;;;;;;;14.31;30.03;101178.66;4941351;28;20074;-91
2024/03/19 10:15:20;;;;;;;0.20;0.20;;;;;;;14.45;28.25;101165.75;4929296;29;20069;-86
2024/03/19 10:17:47;;;;;;;0.20;0.20;;;;;;;14.51;27.23;101186.22;4947571;29;20070;-89
2024/03/19 10:20:14;;;;;;;0.20;0.20;;;;;;;14.39;27.38;101171.28;4924499;29;20044;-89
2024/03/19 10:22:40;;;;;;;0.20;0.20;;;;;;;14.27;27.67;101193.63;4906576;29;20031;-88
2024/03/19 10:25:06;;;;;;;0.20;0.20;;;;;;;14.33;27.77;101175.06;4929288;29;20122;-90
2024/03/19 10:27:34;;;;;;;0.30;0.30;;;;;;;14.63;28.12;101185.53;4932603;29;20391;-92
2024/03/19 10:30:02;;;;;;;0.20;0.20;;;;;;;14.41;28.00;101166.81;4918139;29;20028;-89
2024/03/19 10:32:28;;;;;;;0.20;0.20;;;;;;;14.52;28.77;101176.66;4934716;29;20031;-92
2024/03/19 10:34:53;;;;;;;0.20;0.20;;;;;;;14.52;27.83;101177.50;4950870;28;20031;-86
2024/03/19 10:37:19;;;;;;;0.20;0.20;;;;;;;14.37;28.24;101152.31;4914379;29;20078;-91
2024/03/19 10:39:44;;;;;;;0.20;0.20;;;;;;;14.58;28.62;101176.31;4930958;29;20483;-89
2024/03/19 10:42:11;;;;;;;0.20;0.20;;;;;;;14.78;29.39;101169.97;4933333;29;20095;-92
2024/03/19 10:44:37;;;;;;;0.20;0.20;;;;;;;14.79;28.38;101174.25;4943215;29;20051;-84
2024/03/19 10:47:03;;;;;;;0.20;0.20;;;;;;;14.62;28.07;101156.97;4930332;29;20036;-92
2024/03/19 10:49:30;;;;;;;0.20;0.20;;;;;;;14.60;30.42;101151.88;4916036;29;20071;-91
2024/03/19 10:52:20;;;;;;;0.20;0.20;;;;;;;14.67;28.79;101162.78;4946868;28;20027;-89
2024/03/19 10:54:46;;;;;;;0.20;0.20;;;;;;;14.68;28.58;101134.97;4923026;29;20036;-89
2024/03/19 10:57:15;;;;;;;0.20;0.20;;;;;;;14.76;27.97;101167.47;4932971;29;20585;-84
2024/03/19 10:59:40;;;;;;;0.20;0.20;;;;;;;14.69;28.12;101167.91;4946862;29;20028;-85
2024/03/19 11:02:07;;;;;;;0.20;0.20;;;;;;;14.70;28.44;101156.53;4912636;29;20156;-82
2024/03/19 11:04:33;;;;;;;0.20;0.20;;;;;;;14.76;27.67;101164.84;4925505;29;20031;-80
2024/03/19 11:06:58;;;;;;;0.20;0.20;;;;;;;14.53;28.67;101160.09;4930938;29;20030;-85
2024/03/19 11:09:28;;;;;;;0.20;0.20;;;;;;;14.44;28.16;101169.25;4934736;29;20386;-92
2024/03/19 11:11:55;;;;;;;0.20;0.20;;;;;;;14.39;27.67;101152.22;4933998;29;20090;-80
2024/03/19 11:14:22;;;;;;;0.20;0.20;;;;;;;14.71;28.02;101155.63;4934929;29;20126;-84
2024/03/19 11:16:47;;;;;;;0.20;0.20;;;;;;;14.85;28.09;101166.09;4908978;29;20445;-88
2024/03/19 11:19:24;;;;;;;0.20;0.20;;;;;;;14.53;26.66;101121.06;4935139;29;20031;-89